Terminal Aerodrome Forecast
Issued by NWS

Home | Current Version | Previous Version | Text Only | Print | Product List | Glossary On
Versions: 1 2 3 4 5 6 7 8 9 10 11 12
537
FTUS43 KGRB 191732
TAFCWA
TAF
KCWA 191732Z 1918/2018 25008G15KT P6SM SKC
     FM192100 20006KT P6SM SKC
     FM200300 19005KT P6SM SKC WS020/23035KT
     FM201100 19006KT P6SM SKC
     FM201700 19009G16KT P6SM SKC=

USA.gov is the U.S. government's official web portal to all federal, state and local government web resources and services.